createdAt,value
2018-02-18T00:02:25.678Z,41.27
2018-02-18T00:04:53.142Z,42.00
2018-02-18T00:07:20.603Z,41.60
2018-02-18T00:09:48.056Z,41.43
2018-02-18T00:12:15.520Z,42.70
2018-02-18T00:14:46.876Z,41.90
2018-02-18T00:17:14.347Z,39.67
2018-02-18T00:19:42.563Z,41.40
2018-02-18T00:22:10.819Z,43.23
2018-02-18T00:24:38.275Z,39.37
2018-02-18T00:27:05.728Z,39.87
2018-02-18T00:29:33.180Z,40.97
2018-02-18T00:32:01.396Z,40.43
2018-02-18T00:34:28.864Z,41.37
2018-02-18T00:36:56.315Z,41.63
2018-02-18T00:39:23.773Z,41.77
2018-02-18T00:41:51.222Z,39.40
2018-02-18T00:44:18.698Z,39.30
2018-02-18T00:46:46.140Z,38.80
2018-02-18T00:49:13.599Z,37.87
2018-02-18T00:51:41.052Z,40.97
2018-02-18T00:54:08.508Z,39.07
2018-02-18T00:56:35.959Z,36.00
2018-02-18T00:59:03.417Z,38.13
2018-02-18T01:01:30.871Z,36.97
2018-02-18T01:03:58.323Z,35.23
2018-02-18T01:06:25.775Z,37.10
2018-02-18T01:08:53.240Z,38.57
2018-02-18T01:11:20.693Z,37.50
2018-02-18T01:13:48.152Z,37.80
2018-02-18T01:16:15.595Z,41.90
2018-02-18T01:18:43.051Z,39.17
2018-02-18T01:21:10.511Z,38.97
2018-02-18T01:23:37.964Z,37.70
2018-02-18T01:26:05.428Z,39.10
2018-02-18T01:28:32.895Z,39.57
2018-02-18T01:31:00.351Z,41.17
2018-02-18T01:33:27.815Z,41.93
2018-02-18T01:35:55.267Z,38.10
2018-02-18T01:38:22.728Z,39.40
2018-02-18T01:40:50.183Z,39.17
2018-02-18T01:43:17.639Z,41.20
2018-02-18T01:45:45.094Z,39.90
2018-02-18T01:48:12.545Z,41.00
2018-02-18T01:50:40.007Z,38.97
2018-02-18T01:53:07.463Z,38.90
2018-02-18T01:55:34.924Z,37.97
2018-02-18T01:58:02.381Z,38.73
2018-02-18T02:00:29.844Z,38.47
2018-02-18T02:02:57.312Z,39.10
2018-02-18T02:05:24.759Z,39.17
2018-02-18T02:07:52.215Z,40.60
2018-02-18T02:10:19.671Z,41.03
2018-02-18T02:12:47.132Z,40.50
2018-02-18T02:15:14.594Z,39.37
2018-02-18T02:17:42.052Z,39.60
2018-02-18T02:20:09.511Z,41.07
2018-02-18T02:22:36.985Z,41.53
2018-02-18T02:25:05.212Z,41.20
2018-02-18T02:27:32.663Z,42.57
2018-02-18T02:30:00.127Z,40.97
2018-02-18T02:32:27.588Z,40.70
2018-02-18T02:34:55.040Z,41.37
2018-02-18T02:37:22.500Z,37.90
2018-02-18T02:39:49.952Z,41.87
2018-02-18T02:42:17.415Z,39.37
2018-02-18T02:44:44.870Z,43.50
2018-02-18T02:47:12.320Z,40.03
2018-02-18T02:49:39.771Z,39.37
2018-02-18T02:52:07.277Z,37.23
2018-02-18T02:54:34.680Z,39.53
2018-02-18T02:57:02.135Z,41.90
2018-02-18T02:59:29.579Z,42.17
2018-02-18T03:01:57.036Z,40.70
2018-02-18T03:04:25.262Z,40.50
2018-02-18T03:06:52.715Z,41.20
2018-02-18T03:09:20.171Z,38.13
2018-02-18T03:11:47.628Z,41.23
2018-02-18T03:14:15.078Z,39.83
2018-02-18T03:16:42.544Z,41.00
2018-02-18T03:19:09.996Z,40.70
2018-02-18T03:21:37.451Z,42.60
2018-02-18T03:24:04.908Z,38.53
2018-02-18T03:26:32.374Z,41.73
2018-02-18T03:28:59.824Z,41.43
2018-02-18T03:31:27.288Z,39.70
2018-02-18T03:33:54.731Z,42.33
2018-02-18T03:36:22.191Z,42.33
2018-02-18T03:38:49.648Z,39.63
2018-02-18T03:41:17.103Z,40.40
2018-02-18T03:43:44.560Z,42.07
2018-02-18T03:46:12.015Z,41.00
2018-02-18T03:48:39.470Z,41.27
2018-02-18T03:51:06.931Z,41.20
2018-02-18T03:53:34.388Z,40.73
2018-02-18T03:56:01.852Z,41.47
2018-02-18T03:58:29.304Z,41.00
2018-02-18T04:00:56.760Z,43.50
2018-02-18T04:03:24.219Z,43.20
2018-02-18T04:05:51.675Z,40.90
2018-02-18T04:08:19.137Z,41.60
2018-02-18T04:10:46.588Z,40.93
2018-02-18T04:13:14.040Z,41.23
2018-02-18T04:15:41.491Z,38.47
2018-02-18T04:18:08.960Z,38.30
2018-02-18T04:20:36.403Z,38.57
2018-02-18T04:23:03.864Z,37.23
2018-02-18T04:25:31.311Z,36.27
2018-02-18T04:27:58.783Z,38.40
2018-02-18T04:30:26.241Z,38.47
2018-02-18T04:32:53.699Z,37.97
2018-02-18T04:35:21.158Z,41.60
2018-02-18T04:37:48.620Z,36.40
2018-02-18T04:40:16.075Z,35.90
2018-02-18T04:42:43.532Z,37.90
2018-02-18T04:45:10.975Z,36.17
2018-02-18T04:47:38.439Z,37.77
2018-02-18T04:50:05.887Z,37.83
2018-02-18T04:52:33.339Z,38.87
2018-02-18T04:55:01.417Z,37.80
2018-02-18T04:57:28.871Z,36.87
2018-02-18T04:59:56.323Z,38.40
2018-02-18T05:02:23.792Z,36.07
2018-02-18T05:04:51.243Z,36.20
2018-02-18T05:07:18.696Z,36.17
2018-02-18T05:09:46.151Z,39.43
2018-02-18T05:12:13.607Z,40.93
2018-02-18T05:14:41.063Z,37.90
2018-02-18T05:17:08.517Z,38.63
2018-02-18T05:19:35.963Z,36.47
2018-02-18T05:22:04.231Z,39.73
2018-02-18T05:24:31.687Z,38.67
2018-02-18T05:26:59.136Z,37.57
2018-02-18T05:29:26.596Z,38.27
2018-02-18T05:31:54.062Z,38.33
2018-02-18T05:34:21.522Z,38.50
2018-02-18T05:36:48.983Z,39.17
2018-02-18T05:39:16.447Z,38.50
2018-02-18T05:41:43.899Z,38.33
2018-02-18T05:44:11.368Z,36.57
2018-02-18T05:46:38.824Z,37.73
2018-02-18T05:49:06.287Z,38.50
2018-02-18T05:51:33.734Z,39.43
2018-02-18T05:54:01.200Z,36.70
2018-02-18T05:56:28.653Z,39.67
2018-02-18T05:58:56.104Z,40.33
2018-02-18T06:01:23.559Z,36.73
2018-02-18T06:03:51.016Z,36.60
2018-02-18T06:06:18.476Z,35.23
2018-02-18T06:08:45.936Z,38.83
2018-02-18T06:11:13.387Z,37.57
2018-02-18T06:13:40.843Z,38.40
2018-02-18T06:16:08.302Z,37.80
2018-02-18T06:18:35.759Z,41.00
2018-02-18T06:21:03.219Z,38.17
2018-02-18T06:23:30.680Z,39.90
2018-02-18T06:25:58.134Z,42.60
2018-02-18T06:28:25.588Z,42.60
2018-02-18T06:30:53.044Z,41.43
2018-02-18T06:33:20.500Z,39.77
2018-02-18T06:35:47.959Z,40.00
2018-02-18T06:38:15.432Z,43.10
2018-02-18T06:40:42.868Z,40.10
2018-02-18T06:43:10.320Z,39.43
2018-02-18T06:45:37.771Z,38.80
2018-02-18T06:48:05.226Z,35.37
2018-02-18T06:50:32.682Z,38.90
2018-02-18T06:53:00.140Z,38.57
2018-02-18T06:55:27.611Z,43.93
2018-02-18T06:57:55.070Z,44.83
2018-02-18T07:00:22.519Z,47.10
2018-02-18T07:02:49.979Z,44.13
2018-02-18T07:05:17.446Z,43.80
2018-02-18T07:07:44.891Z,41.47
2018-02-18T07:10:12.348Z,36.53
2018-02-18T07:12:39.796Z,36.70
2018-02-18T07:15:07.259Z,40.57
2018-02-18T07:17:34.961Z,37.63
2018-02-18T07:20:02.450Z,38.07
2018-02-18T07:22:29.908Z,36.33
2018-02-18T07:24:57.351Z,35.40
2018-02-18T07:27:24.807Z,35.20
2018-02-18T07:29:52.268Z,35.60
2018-02-18T07:32:19.723Z,34.53
2018-02-18T07:34:48.171Z,34.30
2018-02-18T07:37:16.400Z,36.27
2018-02-18T07:39:43.847Z,36.93
2018-02-18T07:42:11.313Z,37.57
2018-02-18T07:44:38.763Z,37.47
2018-02-18T07:47:06.219Z,34.73
2018-02-18T07:49:33.688Z,36.70
2018-02-18T07:52:01.143Z,36.60
2018-02-18T07:54:28.596Z,36.10
2018-02-18T07:56:56.060Z,37.00
2018-02-18T07:59:23.506Z,42.17
2018-02-18T08:01:50.975Z,38.73
2018-02-18T08:04:18.424Z,34.60
2018-02-18T08:06:45.884Z,38.17
2018-02-18T08:09:13.340Z,36.43
2018-02-18T08:11:40.796Z,36.87
2018-02-18T08:14:08.246Z,36.80
2018-02-18T08:16:35.708Z,37.37
2018-02-18T08:19:03.165Z,36.40
2018-02-18T08:21:30.619Z,36.33
2018-02-18T08:23:58.064Z,38.03
2018-02-18T08:26:25.520Z,35.17
2018-02-18T08:28:52.971Z,34.97
2018-02-18T08:31:20.432Z,36.43
2018-02-18T08:33:47.887Z,36.03
2018-02-18T08:36:15.339Z,35.17
2018-02-18T08:38:42.804Z,36.60
2018-02-18T08:41:10.256Z,38.37
2018-02-18T08:43:37.732Z,38.93
2018-02-18T08:46:05.228Z,38.27
2018-02-18T08:48:32.717Z,36.97
2018-02-18T08:51:00.156Z,38.07
2018-02-18T08:53:27.627Z,38.23
2018-02-18T08:55:55.076Z,35.63
2018-02-18T08:58:22.536Z,32.70
2018-02-18T09:00:50.371Z,33.97
2018-02-18T09:03:17.823Z,33.13
2018-02-18T09:05:45.276Z,36.23
2018-02-18T09:08:13.520Z,32.87
2018-02-18T09:10:40.971Z,40.10
2018-02-18T09:13:08.432Z,36.13
2018-02-18T09:15:35.888Z,36.57
2018-02-18T09:18:03.344Z,36.00
2018-02-18T09:20:30.803Z,35.87
2018-02-18T09:22:58.260Z,36.97
2018-02-18T09:25:25.724Z,38.67
2018-02-18T09:27:53.188Z,35.30
2018-02-18T09:30:21.915Z,38.93
2018-02-18T09:32:49.392Z,38.00
2018-02-18T09:35:16.849Z,39.50
2018-02-18T09:37:44.335Z,37.27
2018-02-18T09:40:11.788Z,38.17
2018-02-18T09:42:39.247Z,33.83
2018-02-18T09:45:06.703Z,35.37
2018-02-18T09:47:34.152Z,38.27
2018-02-18T09:50:01.612Z,38.40
2018-02-18T09:52:29.072Z,35.70
2018-02-18T09:54:56.540Z,38.63
2018-02-18T09:57:24.789Z,34.00
2018-02-18T09:59:52.243Z,37.77
2018-02-18T10:02:19.707Z,37.90
2018-02-18T10:04:47.168Z,32.93
2018-02-18T10:07:14.622Z,35.50
2018-02-18T10:09:42.087Z,35.30
2018-02-18T10:12:09.540Z,37.47
2018-02-18T10:14:37.133Z,37.00
2018-02-18T10:17:04.619Z,36.70
2018-02-18T10:19:32.080Z,36.23
2018-02-18T10:21:59.552Z,34.53
2018-02-18T10:24:27.024Z,33.33
2018-02-18T10:26:54.480Z,34.10
2018-02-18T10:29:21.948Z,33.90
2018-02-18T10:31:49.409Z,33.07
2018-02-18T10:34:17.668Z,33.30
2018-02-18T10:36:45.876Z,34.73
2018-02-18T10:39:14.228Z,31.20
2018-02-18T10:41:41.692Z,30.30
2018-02-18T10:44:10.263Z,30.10
2018-02-18T10:46:38.039Z,28.40
2018-02-18T10:49:05.561Z,30.30
2018-02-18T10:51:33.564Z,30.80
2018-02-18T10:54:01.388Z,30.23
2018-02-18T10:56:29.572Z,29.10
2018-02-18T10:58:57.207Z,30.93
2018-02-18T11:01:25.538Z,24.90
2018-02-18T11:03:52.990Z,24.63
2018-02-18T11:06:21.376Z,21.03
2018-02-18T11:08:48.932Z,18.43
2018-02-18T11:11:16.512Z,17.80
2018-02-18T11:13:44.485Z,18.30
2018-02-18T11:16:12.817Z,19.77
2018-02-18T11:18:40.261Z,19.27
2018-02-18T11:21:07.715Z,18.77
2018-02-18T11:23:35.167Z,21.40
2018-02-18T11:26:02.631Z,22.60
2018-02-18T11:28:30.076Z,22.60
2018-02-18T11:30:57.539Z,21.97
2018-02-18T11:33:24.996Z,23.20
2018-02-18T11:35:52.451Z,22.70
2018-02-18T11:38:19.955Z,21.37
2018-02-18T11:40:47.412Z,18.83
2018-02-18T11:43:14.861Z,19.20
2018-02-18T11:45:42.320Z,19.60
2018-02-18T11:48:09.775Z,22.23
2018-02-18T11:50:37.246Z,19.20
2018-02-18T11:53:04.688Z,19.93
2018-02-18T11:55:32.143Z,21.63
2018-02-18T11:57:59.596Z,21.40
2018-02-18T12:00:27.056Z,20.13
2018-02-18T12:02:54.577Z,19.97
2018-02-18T12:05:22.036Z,23.80
2018-02-18T12:07:49.492Z,22.60
2018-02-18T12:10:16.947Z,21.73
2018-02-18T12:12:44.407Z,21.23
2018-02-18T12:15:11.859Z,21.90
2018-02-18T12:17:39.410Z,22.07
2018-02-18T12:20:06.863Z,22.00
2018-02-18T12:22:34.327Z,24.27
2018-02-18T12:25:01.789Z,22.80
2018-02-18T12:27:29.249Z,22.03
2018-02-18T12:29:56.708Z,26.10
2018-02-18T12:32:24.176Z,25.00
2018-02-18T12:34:51.635Z,24.93
2018-02-18T12:37:19.096Z,22.10
2018-02-18T12:39:46.544Z,28.43
2018-02-18T12:42:14.015Z,23.40
2018-02-18T12:44:41.576Z,22.03
2018-02-18T12:47:09.027Z,23.00
2018-02-18T12:49:36.483Z,22.90
2018-02-18T12:52:03.946Z,20.47
2018-02-18T12:54:31.401Z,23.80
2018-02-18T12:56:58.865Z,22.97
2018-02-18T12:59:27.091Z,24.00
2018-02-18T13:01:54.555Z,23.47
2018-02-18T13:04:22.020Z,21.43
2018-02-18T13:06:49.483Z,20.83
2018-02-18T13:09:16.944Z,23.03
2018-02-18T13:11:44.401Z,20.40
2018-02-18T13:14:11.857Z,19.80
2018-02-18T13:16:39.335Z,19.03
2018-02-18T13:19:07.580Z,21.93
2018-02-18T13:21:35.044Z,19.93
2018-02-18T13:24:02.501Z,21.00
2018-02-18T13:26:29.963Z,20.73
2018-02-18T13:28:57.428Z,21.80
2018-02-18T13:31:24.875Z,20.17
2018-02-18T13:33:52.349Z,20.27
2018-02-18T13:36:19.796Z,20.37
2018-02-18T13:38:47.264Z,20.60
2018-02-18T13:41:14.704Z,22.23
2018-02-18T13:43:42.167Z,21.90
2018-02-18T13:46:09.625Z,24.57
2018-02-18T13:48:37.092Z,22.23
2018-02-18T13:51:04.551Z,22.90
2018-02-18T13:53:32.008Z,24.37
2018-02-18T13:56:00.231Z,22.47
2018-02-18T13:58:27.742Z,25.70
2018-02-18T14:00:55.168Z,25.50
2018-02-18T14:03:22.640Z,23.17
2018-02-18T14:05:50.093Z,24.63
2018-02-18T14:08:17.559Z,24.77
2018-02-18T14:10:45.015Z,24.60
2018-02-18T14:13:12.476Z,25.90
2018-02-18T14:15:39.932Z,22.77
2018-02-18T14:18:08.423Z,24.80
2018-02-18T14:20:37.311Z,24.50
2018-02-18T14:23:04.849Z,24.60
2018-02-18T14:25:32.308Z,27.50
2018-02-18T14:27:59.763Z,26.63
2018-02-18T14:30:27.217Z,27.80
2018-02-18T14:32:54.683Z,23.70
2018-02-18T14:35:22.148Z,24.93
2018-02-18T14:37:50.371Z,26.47
2018-02-18T14:40:17.827Z,26.00
2018-02-18T14:42:57.112Z,26.23
2018-02-18T14:45:37.184Z,25.93
2018-02-18T14:48:16.568Z,24.67
2018-02-18T14:50:56.080Z,25.57
2018-02-18T14:53:35.519Z,26.27
2018-02-18T14:58:57.646Z,26.00
2018-02-18T15:01:25.107Z,25.43
2018-02-18T15:03:52.565Z,25.03
2018-02-18T15:06:20.016Z,23.87
2018-02-18T15:08:47.476Z,27.20
2018-02-18T15:11:14.927Z,22.80
2018-02-18T15:13:42.376Z,27.10
2018-02-18T15:16:10.611Z,27.13
2018-02-18T15:18:38.068Z,23.83
2018-02-18T15:21:06.523Z,22.77
2018-02-18T15:23:34.052Z,26.97
2018-02-18T15:26:01.464Z,24.00
2018-02-18T15:28:28.908Z,24.50
2018-02-18T15:30:56.364Z,21.90
2018-02-18T15:33:23.816Z,26.33
2018-02-18T15:35:51.439Z,24.63
2018-02-18T15:38:19.160Z,24.77
2018-02-18T15:40:46.616Z,25.10
2018-02-18T15:43:14.071Z,25.00
2018-02-18T15:45:41.532Z,22.00
2018-02-18T15:48:08.984Z,23.90
2018-02-18T15:50:36.440Z,24.03
2018-02-18T15:53:03.896Z,26.00
2018-02-18T15:55:31.348Z,25.77
2018-02-18T15:57:58.807Z,25.63
2018-02-18T16:00:26.268Z,21.20
2018-02-18T16:02:53.716Z,24.67
2018-02-18T16:05:21.179Z,24.47
2018-02-18T16:07:48.636Z,25.63
2018-02-18T16:10:16.890Z,24.30
2018-02-18T16:12:44.342Z,28.00
2018-02-18T16:15:11.934Z,26.67
2018-02-18T16:17:39.399Z,29.00
2018-02-18T16:20:07.304Z,39.47
2018-02-18T16:22:35.607Z,29.97
2018-02-18T16:25:03.088Z,28.77
2018-02-18T16:27:30.539Z,30.83
2018-02-18T16:29:57.995Z,27.57
2018-02-18T16:32:25.446Z,24.90
2018-02-18T16:34:52.904Z,26.03
2018-02-18T16:37:20.372Z,26.33
2018-02-18T16:39:47.831Z,25.57
2018-02-18T16:42:15.302Z,27.57
2018-02-18T16:44:42.751Z,25.50
2018-02-18T16:47:10.974Z,27.23
2018-02-18T16:49:38.419Z,28.63
2018-02-18T16:52:06.650Z,28.40
2018-02-18T16:54:34.131Z,28.67
2018-02-18T16:57:01.582Z,29.30
2018-02-18T16:59:29.031Z,30.07
2018-02-18T17:01:56.491Z,30.10
2018-02-18T17:04:23.943Z,29.80
2018-02-18T17:06:51.403Z,32.17
2018-02-18T17:09:18.863Z,25.90
2018-02-18T17:11:46.378Z,29.57
2018-02-18T17:14:14.595Z,32.47
2018-02-18T17:16:42.047Z,28.67
2018-02-18T17:19:09.980Z,28.13
2018-02-18T17:21:37.538Z,29.17
2018-02-18T17:24:04.994Z,30.77
2018-02-18T17:26:32.453Z,31.87
2018-02-18T17:28:59.909Z,31.50
2018-02-18T17:31:27.364Z,30.60
2018-02-18T17:33:54.819Z,30.03
2018-02-18T17:36:22.353Z,32.57
2018-02-18T17:38:49.838Z,31.23
2018-02-18T17:41:17.291Z,30.63
2018-02-18T17:43:44.748Z,28.17
2018-02-18T17:46:12.203Z,31.20
2018-02-18T17:48:39.659Z,30.63
2018-02-18T17:51:07.115Z,30.30
2018-02-18T17:53:34.576Z,29.20
2018-02-18T17:56:02.811Z,29.27
2018-02-18T17:58:31.450Z,31.70
2018-02-18T18:00:58.991Z,30.43
2018-02-18T18:03:26.447Z,30.47
2018-02-18T18:05:53.912Z,30.97
2018-02-18T18:08:21.367Z,35.10
2018-02-18T18:10:48.815Z,32.40
2018-02-18T18:13:16.304Z,33.33
2018-02-18T18:15:43.765Z,34.50
2018-02-18T18:18:11.223Z,29.97
2018-02-18T18:20:38.684Z,30.83
2018-02-18T18:23:06.135Z,29.97
2018-02-18T18:25:33.702Z,30.43
2018-02-18T18:28:01.147Z,32.27
2018-02-18T18:30:28.603Z,28.17
2018-02-18T18:32:56.138Z,29.77
2018-02-18T18:35:23.535Z,34.20
2018-02-18T18:37:50.976Z,27.33
2018-02-18T18:40:18.440Z,28.00
2018-02-18T18:42:45.887Z,42.93
2018-02-18T18:45:13.351Z,34.70
2018-02-18T18:47:40.795Z,38.57
2018-02-18T18:50:08.263Z,31.50
2018-02-18T18:52:36.327Z,39.50
2018-02-18T18:55:03.785Z,39.77
2018-02-18T18:57:32.126Z,37.10
2018-02-18T18:59:59.589Z,37.23
2018-02-18T19:02:27.043Z,33.07
2018-02-18T19:04:54.510Z,33.97
2018-02-18T19:07:21.966Z,28.80
2018-02-18T19:09:49.435Z,29.90
2018-02-18T19:12:16.885Z,29.90
2018-02-18T19:14:44.375Z,30.57
2018-02-18T19:17:12.603Z,27.20
2018-02-18T19:19:40.062Z,26.63
2018-02-18T19:22:07.523Z,29.10
2018-02-18T19:24:34.982Z,29.13
2018-02-18T19:27:02.439Z,28.63
2018-02-18T19:29:29.911Z,27.30
2018-02-18T19:31:57.364Z,29.73
2018-02-18T19:34:24.867Z,27.90
2018-02-18T19:36:52.315Z,28.47
2018-02-18T19:39:20.538Z,26.03
2018-02-18T19:41:47.999Z,24.50
2018-02-18T19:44:16.241Z,26.13
2018-02-18T19:46:43.697Z,26.73
2018-02-18T19:49:11.178Z,39.80
2018-02-18T19:51:38.638Z,21.30
2018-02-18T19:54:06.084Z,24.77
2018-02-18T19:56:33.559Z,23.77
2018-02-18T19:59:01.036Z,25.80
2018-02-18T20:01:29.299Z,29.13
2018-02-18T20:03:56.763Z,25.57
2018-02-18T20:06:24.232Z,26.53
2018-02-18T20:08:51.730Z,23.87
2018-02-18T20:11:19.171Z,23.90
2018-02-18T20:13:46.655Z,24.93
2018-02-18T20:16:14.115Z,23.10
2018-02-18T20:18:41.581Z,25.43
2018-02-18T20:21:09.043Z,23.80
2018-02-18T20:23:36.494Z,25.87
2018-02-18T20:26:03.959Z,24.07
2018-02-18T20:28:31.407Z,24.30
2018-02-18T20:30:58.870Z,20.50
2018-02-18T20:33:26.338Z,20.90
2018-02-18T20:35:53.802Z,20.57
2018-02-18T20:38:21.260Z,17.73
2018-02-18T20:40:48.712Z,18.37
2018-02-18T20:43:16.164Z,17.27
2018-02-18T20:45:44.383Z,19.97
2018-02-18T20:48:11.832Z,18.00
2018-02-18T20:50:40.073Z,17.27
2018-02-18T20:53:07.531Z,19.60
2018-02-18T20:55:34.992Z,17.67
2018-02-18T20:58:02.453Z,21.37
2018-02-18T21:00:29.907Z,21.60
2018-02-18T21:02:57.359Z,22.13
2018-02-18T21:05:24.822Z,21.80
2018-02-18T21:07:52.276Z,22.30
2018-02-18T21:10:19.731Z,22.93
2018-02-18T21:12:47.478Z,19.10
2018-02-18T21:15:14.936Z,21.10
2018-02-18T21:17:42.407Z,20.27
2018-02-18T21:20:09.878Z,19.20
2018-02-18T21:22:37.433Z,21.10
2018-02-18T21:25:05.671Z,21.37
2018-02-18T21:27:33.123Z,23.17
2018-02-18T21:30:00.575Z,18.70
2018-02-18T21:32:28.095Z,20.40
2018-02-18T21:34:56.327Z,20.63
2018-02-18T21:37:23.904Z,20.53
2018-02-18T21:39:51.344Z,21.00
2018-02-18T21:42:18.881Z,20.00
2018-02-18T21:44:47.106Z,19.90
2018-02-18T21:47:14.571Z,20.13
2018-02-18T21:49:42.816Z,18.90
2018-02-18T21:52:10.397Z,21.80
2018-02-18T21:54:37.883Z,21.77
2018-02-18T21:57:05.387Z,19.13
2018-02-18T21:59:32.947Z,21.03
2018-02-18T22:02:01.269Z,21.30
2018-02-18T22:04:28.961Z,21.03
2018-02-18T22:06:57.281Z,21.10
2018-02-18T22:09:24.700Z,21.60
2018-02-18T22:11:52.216Z,20.90
2018-02-18T22:14:20.433Z,19.23
2018-02-18T22:16:47.883Z,18.70
2018-02-18T22:19:15.335Z,19.43
2018-02-18T22:21:42.800Z,19.43
2018-02-18T22:24:10.331Z,18.43
2018-02-18T22:26:37.809Z,21.10
2018-02-18T22:29:05.259Z,19.00
2018-02-18T22:31:32.710Z,19.30
2018-02-18T22:34:00.171Z,16.90
2018-02-18T22:36:27.628Z,16.30
2018-02-18T22:38:55.083Z,16.40
2018-02-18T22:41:23.303Z,16.97
2018-02-18T22:43:50.755Z,17.27
2018-02-18T22:46:18.207Z,15.40
2018-02-18T22:48:45.660Z,16.10
2018-02-18T22:51:13.119Z,15.50
2018-02-18T22:53:40.572Z,14.77
2018-02-18T22:56:08.028Z,15.00
2018-02-18T22:58:35.486Z,15.77
2018-02-18T23:01:02.940Z,15.57
2018-02-18T23:03:30.400Z,16.20
2018-02-18T23:05:57.845Z,17.10
2018-02-18T23:08:25.298Z,17.77
2018-02-18T23:10:52.752Z,15.80
2018-02-18T23:13:20.210Z,17.00
2018-02-18T23:15:47.664Z,18.43
2018-02-18T23:18:15.122Z,18.17
2018-02-18T23:20:54.807Z,16.53
2018-02-18T23:23:23.032Z,17.07
2018-02-18T23:25:50.488Z,18.40
2018-02-18T23:28:17.952Z,19.13
2018-02-18T23:30:45.413Z,19.80
2018-02-18T23:33:12.866Z,19.90
2018-02-18T23:35:40.325Z,20.50
2018-02-18T23:38:07.778Z,20.83
2018-02-18T23:40:35.227Z,18.47
2018-02-18T23:43:02.687Z,17.60
2018-02-18T23:45:30.134Z,19.40
2018-02-18T23:47:57.593Z,18.40
2018-02-18T23:50:25.043Z,19.17
2018-02-18T23:52:53.259Z,20.00
2018-02-18T23:55:20.710Z,20.30
2018-02-18T23:57:48.165Z,19.50
